Littleton, West Virginia
Current Conditions -  °F | °C
As of 11:41 AM on Wednesday 26 Nov 2014 (Local Time) from KCKB Reporting Station
Light Snow Light Snow  
Wind Chill: 34°   Ceiling: NA
Heat Index: 34°   Visibility: 1.7mi
Dew Point: 33°   Wind: 0mph
Humidity: 96%   Direction: NA
Pressure: 30.04"   Gusts: NA
Location:  39.7°N, 80.52°W
Report Text: KCKB 261641Z AUTO 00000KT 1 3/4SM -SN BR 01/01 A3004 RMK AO2 RAE21SNB21B28 P0005 T00110006 TSNO $
Loading
Personal Weather Stations






























Interactive Weather Map New forecast layout! Learn more

10-Day Weather Forecast

Advertisements
Track Severe Weather on mobile